Terminal Aerodrome Forecast
Issued by NWS Dallas/Fort Worth, TX

Home | Current Version | Previous Version | Text Only | Print | Product List | Glossary On
Versions: 1 2 3 4 5 6 7 8 9 10 11 12 13 14 15 16 17 18 19 20 21 22 23 24 25 26 27
000
FTUS44 KFWD 170900 AAA
TAFACT
TAF AMD
KACT 170905Z 1709/1806 13009KT P6SM BKN250
     FM171000 12009KT P6SM OVC020
     FM171500 12009KT P6SM VCSH OVC015
     FM171800 13009KT P6SM VCSH OVC025
     FM180200 12005KT P6SM OVC015=

USA.gov is the U.S. government's official web portal to all federal, state and local government web resources and services.